createdAt,value
2017-07-11T00:07:05.000Z,48.938
2017-07-11T00:17:05.000Z,48.989
2017-07-11T00:27:08.000Z,48.953
2017-07-11T00:37:05.000Z,48.96
2017-07-11T00:47:05.000Z,48.98
2017-07-11T00:57:05.000Z,48.965
2017-07-11T01:07:06.000Z,48.963
2017-07-11T01:17:07.000Z,48.96
2017-07-11T01:27:05.000Z,48.968
2017-07-11T01:37:05.000Z,48.977
2017-07-11T01:47:05.000Z,49.017
2017-07-11T02:07:05.000Z,49.078
2017-07-11T02:17:05.000Z,49.084
2017-07-11T02:27:05.000Z,49.18
2017-07-11T02:37:05.000Z,49.157
2017-07-11T02:47:05.000Z,49.166
2017-07-11T02:57:05.000Z,49.195
2017-07-11T03:07:05.000Z,49.225
2017-07-11T03:17:05.000Z,49.235
2017-07-11T03:27:05.000Z,49.243
2017-07-11T03:37:05.000Z,49.328
2017-07-11T03:47:05.000Z,49.336
2017-07-11T03:57:05.000Z,49.344
2017-07-11T04:07:05.000Z,49.551
2017-07-11T04:17:05.000Z,49.517
2017-07-11T04:27:05.000Z,49.503
2017-07-11T04:37:05.000Z,49.403
2017-07-11T04:47:05.000Z,49.24
2017-07-11T04:57:05.000Z,48.947
2017-07-11T05:07:05.000Z,48.75
2017-07-11T05:17:05.000Z,48.456
2017-07-11T05:27:05.000Z,48.471
2017-07-11T05:37:05.000Z,48.233
2017-07-11T05:47:05.000Z,48.152
2017-07-11T05:57:05.000Z,48.073
2017-07-11T06:07:05.000Z,48.013
2017-07-11T06:17:05.000Z,47.938
2017-07-11T06:27:05.000Z,48.022
2017-07-11T06:37:05.000Z,47.823
2017-07-11T06:47:05.000Z,47.808
2017-07-11T06:57:05.000Z,47.786
2017-07-11T07:07:05.000Z,47.805
2017-07-11T07:17:05.000Z,47.596
2017-07-11T07:27:06.000Z,47.276
2017-07-11T07:37:06.000Z,47.372
2017-07-11T08:07:06.000Z,46.982
2017-07-11T08:17:06.000Z,46.981
2017-07-11T08:27:06.000Z,47.145
2017-07-11T08:37:06.000Z,46.924
2017-07-11T08:47:06.000Z,47.044
2017-07-11T08:57:06.000Z,46.762
2017-07-11T09:07:06.000Z,46.699
2017-07-11T09:17:06.000Z,46.644
2017-07-11T09:27:06.000Z,46.602
2017-07-11T09:37:06.000Z,46.505
2017-07-11T09:47:06.000Z,46.506
2017-07-11T09:57:06.000Z,46.205
2017-07-11T10:07:06.000Z,46.272
2017-07-11T10:17:06.000Z,45.958
2017-07-11T10:27:06.000Z,45.626
2017-07-11T10:37:06.000Z,44.854
2017-07-11T10:47:06.000Z,44.921
2017-07-11T10:57:06.000Z,44.288
2017-07-11T11:07:06.000Z,44.292
2017-07-11T11:17:06.000Z,44.016
2017-07-11T11:37:06.000Z,43.854
2017-07-11T11:47:06.000Z,43.346
2017-07-11T11:57:06.000Z,42.763
2017-07-11T12:07:07.000Z,42.532
2017-07-11T12:17:06.000Z,42.286
2017-07-11T12:27:06.000Z,42.094
2017-07-11T12:37:06.000Z,42.055
2017-07-11T12:47:06.000Z,41.802
2017-07-11T12:57:06.000Z,41.363
2017-07-11T13:07:06.000Z,40.922
2017-07-11T13:17:06.000Z,39.589
2017-07-11T13:27:06.000Z,40.346
2017-07-11T13:37:06.000Z,40.605
2017-07-11T13:47:06.000Z,40.479
2017-07-11T14:07:06.000Z,40.699
2017-07-11T14:17:06.000Z,40.663
2017-07-11T14:27:06.000Z,40.637
2017-07-11T14:37:06.000Z,40.849
2017-07-11T14:47:06.000Z,41.524
2017-07-11T14:57:06.000Z,42.468
2017-07-11T15:07:07.000Z,43.428
2017-07-11T15:17:06.000Z,43.307
2017-07-11T15:27:06.000Z,43.783
2017-07-11T15:37:06.000Z,43.565
2017-07-11T15:47:07.000Z,44.052
2017-07-11T15:57:07.000Z,43.918
2017-07-11T16:07:07.000Z,44.195
2017-07-11T16:17:07.000Z,44.046
2017-07-11T16:27:07.000Z,44.375
2017-07-11T16:37:07.000Z,44.517
2017-07-11T16:47:07.000Z,44.629
2017-07-11T16:57:10.000Z,44.802
2017-07-11T17:07:07.000Z,44.878
2017-07-11T17:17:07.000Z,45.127
2017-07-11T17:27:07.000Z,45.182
2017-07-11T17:37:07.000Z,45.398
2017-07-11T17:57:07.000Z,45.495
2017-07-11T18:07:07.000Z,45.646
2017-07-11T18:17:07.000Z,45.766
2017-07-11T18:27:07.000Z,45.95
2017-07-11T18:37:07.000Z,45.852
2017-07-11T18:47:08.000Z,45.949
2017-07-11T18:57:07.000Z,46.133
2017-07-11T19:07:07.000Z,46.165
2017-07-11T19:17:07.000Z,46.139
2017-07-11T19:27:10.000Z,46.247
2017-07-11T19:37:07.000Z,46.42
2017-07-11T19:47:07.000Z,46.464
2017-07-11T19:57:07.000Z,46.727
2017-07-11T20:07:07.000Z,46.748
2017-07-11T20:27:07.000Z,47.551
2017-07-11T20:37:08.000Z,47.812
2017-07-11T20:47:07.000Z,48.028
2017-07-11T21:07:07.000Z,48.12
2017-07-11T21:17:07.000Z,48.116
2017-07-11T21:27:07.000Z,48.146
2017-07-11T21:37:07.000Z,48.339
2017-07-11T21:57:07.000Z,48.346
2017-07-11T22:07:07.000Z,48.321
2017-07-11T22:17:07.000Z,48.317
2017-07-11T22:27:07.000Z,48.271
2017-07-11T22:37:07.000Z,48.312
2017-07-11T22:47:08.000Z,48.353
2017-07-11T22:57:07.000Z,48.35
2017-07-11T23:07:07.000Z,48.324
2017-07-11T23:17:07.000Z,48.432
2017-07-11T23:27:08.000Z,48.419
2017-07-11T23:37:07.000Z,48.471
2017-07-11T23:47:07.000Z,48.425
2017-07-11T23:57:08.000Z,48.457
